Time,TemperatureF,DewpointF,PressureIn,WindDirection,WindDirectionDegrees,WindSpeedMPH,WindSpeedGustMPH,Humidity,HourlyPrecipIn,Conditions,Clouds,dailyrainin,SoftwareType,DateUTC
2013-12-03 00:10:00,62.1,20.0,30.48,SSE,156,5.0,-999.0,20,-99.99,,,0.00,weatherlink.com 1.10,2013-12-03 06:10:00,
2013-12-03 00:25:00,62.0,20.0,30.48,SSE,157,3.0,-999.0,20,-99.99,,,0.00,weatherlink.com 1.10,2013-12-03 06:25:00,
2013-12-03 00:40:00,61.4,20.0,30.48,South,169,3.0,-999.0,20,-99.99,,,0.00,weatherlink.com 1.10,2013-12-03 06:40:00,
2013-12-03 00:55:00,61.1,20.0,30.48,SSE,152,2.0,-999.0,20,-99.99,,,0.00,weatherlink.com 1.10,2013-12-03 06:55:00,
2013-12-03 01:10:00,60.9,19.0,30.48,SSE,155,4.0,-999.0,20,-99.99,,,0.00,weatherlink.com 1.10,2013-12-03 07:10:00,
2013-12-03 01:25:00,60.6,19.0,30.47,South,171,4.0,-999.0,20,-99.99,,,0.00,weatherlink.com 1.10,2013-12-03 07:25:00,
2013-12-03 01:39:00,60.5,19.0,30.48,SSE,157,4.0,-999.0,20,-99.99,,,0.00,weatherlink.com 1.10,2013-12-03 07:39:00,
2013-12-03 01:54:00,60.4,19.0,30.47,SSE,159,4.0,-999.0,20,-99.99,,,0.00,weatherlink.com 1.10,2013-12-03 07:54:00,
2013-12-03 02:09:00,60.2,19.0,30.47,SSE,154,4.0,-999.0,20,-99.99,,,0.00,weatherlink.com 1.10,2013-12-03 08:09:00,
2013-12-03 02:24:00,60.0,19.0,30.47,SSE,157,3.0,-999.0,20,-99.99,,,0.00,weatherlink.com 1.10,2013-12-03 08:24:00,
2013-12-03 02:40:00,59.8,18.0,30.46,SSE,155,6.0,-999.0,20,-99.99,,,0.00,weatherlink.com 1.10,2013-12-03 08:40:00,
2013-12-03 02:55:00,59.7,17.0,30.46,SSE,153,4.0,-999.0,19,-99.99,,,0.00,weatherlink.com 1.10,2013-12-03 08:55:00,
2013-12-03 03:10:00,59.6,17.0,30.45,SSE,159,3.0,-999.0,19,-99.99,,,0.00,weatherlink.com 1.10,2013-12-03 09:10:00,
2013-12-03 03:25:00,59.5,17.0,30.45,SSE,163,4.0,-999.0,19,-99.99,,,0.00,weatherlink.com 1.10,2013-12-03 09:25:00,
2013-12-03 03:40:00,59.3,17.0,30.45,SSE,158,3.0,-999.0,19,-99.99,,,0.00,weatherlink.com 1.10,2013-12-03 09:40:00,
2013-12-03 03:55:00,59.1,17.0,30.45,SSE,167,4.0,-999.0,19,-99.99,,,0.00,weatherlink.com 1.10,2013-12-03 09:55:00,
2013-12-03 04:10:00,58.7,16.0,30.45,SSE,157,3.0,-999.0,19,-99.99,,,0.00,weatherlink.com 1.10,2013-12-03 10:10:00,
2013-12-03 04:25:00,58.7,16.0,30.45,South,171,3.0,-999.0,19,-99.99,,,0.00,weatherlink.com 1.10,2013-12-03 10:25:00,
2013-12-03 04:40:00,58.4,16.0,30.45,SSE,168,3.0,-999.0,19,-99.99,,,0.00,weatherlink.com 1.10,2013-12-03 10:40:00,
2013-12-03 04:55:00,58.2,16.0,30.44,South,171,4.0,-999.0,19,-99.99,,,0.00,weatherlink.com 1.10,2013-12-03 10:55:00,
2013-12-03 05:10:00,58.6,16.0,30.44,SSE,165,4.0,-999.0,19,-99.99,,,0.00,weatherlink.com 1.10,2013-12-03 11:10:00,
2013-12-03 05:25:00,58.6,16.0,30.45,SSE,157,3.0,-999.0,19,-99.99,,,0.00,weatherlink.com 1.10,2013-12-03 11:25:00,
2013-12-03 05:40:00,59.0,15.0,30.45,SSE,163,4.0,-999.0,18,-99.99,,,0.00,weatherlink.com 1.10,2013-12-03 11:40:00,
2013-12-03 05:55:00,59.2,15.0,30.45,SSE,162,5.0,-999.0,18,-99.99,,,0.00,weatherlink.com 1.10,2013-12-03 11:55:00,
2013-12-03 06:10:00,59.3,14.0,30.46,South,175,5.0,-999.0,17,-99.99,,,0.00,weatherlink.com 1.10,2013-12-03 12:10:00,
2013-12-03 06:25:00,59.5,14.0,30.46,South,175,7.0,-999.0,17,-99.99,,,0.00,weatherlink.com 1.10,2013-12-03 12:25:00,
2013-12-03 06:40:00,59.5,14.0,30.47,SSE,148,6.0,-999.0,17,-99.99,,,0.00,weatherlink.com 1.10,2013-12-03 12:40:00,
2013-12-03 06:55:00,59.4,14.0,30.47,SSE,150,9.0,-999.0,17,-99.99,,,0.00,weatherlink.com 1.10,2013-12-03 12:55:00,
2013-12-03 07:10:00,59.0,14.0,30.46,SSE,168,4.0,-999.0,17,-99.99,,,0.00,weatherlink.com 1.10,2013-12-03 13:10:00,
2013-12-03 07:25:00,58.4,14.0,30.46,SSE,157,5.0,-999.0,17,-99.99,,,0.00,weatherlink.com 1.10,2013-12-03 13:25:00,
2013-12-03 07:40:00,58.8,14.0,30.47,South,171,5.0,-999.0,17,-99.99,,,0.00,weatherlink.com 1.10,2013-12-03 13:40:00,
2013-12-03 07:55:00,59.2,14.0,30.48,SSE,165,4.0,-999.0,17,-99.99,,,0.00,weatherlink.com 1.10,2013-12-03 13:55:00,
2013-12-03 08:10:00,59.9,15.0,30.48,South,175,6.0,-999.0,17,-99.99,,,0.00,weatherlink.com 1.10,2013-12-03 14:10:00,
2013-12-03 08:25:00,60.6,14.0,30.48,South,174,7.0,-999.0,16,-99.99,,,0.00,weatherlink.com 1.10,2013-12-03 14:25:00,
2013-12-03 08:41:00,61.5,15.0,30.48,South,171,7.0,-999.0,16,-99.99,,,0.00,weatherlink.com 1.10,2013-12-03 14:41:00,
2013-12-03 08:55:00,62.5,20.0,30.48,South,186,5.0,-999.0,19,-99.99,,,0.00,weatherlink.com 1.10,2013-12-03 14:55:00,
2013-12-03 09:10:00,63.3,23.0,30.48,South,189,5.0,-999.0,21,-99.99,,,0.00,weatherlink.com 1.10,2013-12-03 15:10:00,
2013-12-03 09:26:00,64.6,27.0,30.49,SSE,165,5.0,-999.0,24,-99.99,,,0.00,weatherlink.com 1.10,2013-12-03 15:26:00,
2013-12-03 09:41:00,65.6,35.0,30.49,South,172,12.0,-999.0,32,-99.99,,,0.00,weatherlink.com 1.10,2013-12-03 15:41:00,
2013-12-03 09:56:00,66.8,38.0,30.49,South,172,13.0,-999.0,35,-99.99,,,0.00,weatherlink.com 1.10,2013-12-03 15:56:00,
2013-12-03 10:11:00,67.7,40.0,30.50,SSE,165,7.0,-999.0,37,-99.99,,,0.00,weatherlink.com 1.10,2013-12-03 16:11:00,
2013-12-03 10:26:00,68.3,43.0,30.49,South,171,14.0,-999.0,40,-99.99,,,0.00,weatherlink.com 1.10,2013-12-03 16:26:00,
2013-12-03 10:41:00,68.9,44.0,30.49,SSE,159,10.0,-999.0,41,-99.99,,,0.00,weatherlink.com 1.10,2013-12-03 16:41:00,
2013-12-03 10:56:00,69.7,44.0,30.49,SW,218,9.0,-999.0,40,-99.99,,,0.00,weatherlink.com 1.10,2013-12-03 16:56:00,
2013-12-03 11:11:00,70.4,47.0,30.48,SSE,161,9.0,-999.0,43,-99.99,,,0.00,weatherlink.com 1.10,2013-12-03 17:11:00,
2013-12-03 11:26:00,70.8,50.0,30.48,South,170,11.0,-999.0,48,-99.99,,,0.00,weatherlink.com 1.10,2013-12-03 17:26:00,
2013-12-03 11:41:00,71.3,52.0,30.47,SSE,164,8.0,-999.0,50,-99.99,,,0.00,weatherlink.com 1.10,2013-12-03 17:41:00,
2013-12-03 11:56:00,72.3,53.0,30.46,South,178,5.0,-999.0,50,-99.99,,,0.00,weatherlink.com 1.10,2013-12-03 17:56:00,
2013-12-03 12:11:00,72.6,54.0,30.45,South,170,10.0,-999.0,53,-99.99,,,0.00,weatherlink.com 1.10,2013-12-03 18:11:00,
2013-12-03 12:26:00,73.1,55.0,30.45,SSE,165,11.0,-999.0,54,-99.99,,,0.00,weatherlink.com 1.10,2013-12-03 18:26:00,
2013-12-03 12:40:00,73.4,56.0,30.44,South,169,14.0,-999.0,54,-99.99,,,0.00,weatherlink.com 1.10,2013-12-03 18:40:00,
2013-12-03 12:55:00,73.6,58.0,30.43,SSW,204,5.0,-999.0,58,-99.99,,,0.00,weatherlink.com 1.10,2013-12-03 18:55:00,
2013-12-03 13:10:00,74.0,58.0,30.42,SSE,164,7.0,-999.0,57,-99.99,,,0.00,weatherlink.com 1.10,2013-12-03 19:10:00,
2013-12-03 13:25:00,74.6,59.0,30.42,South,175,9.0,-999.0,59,-99.99,,,0.00,weatherlink.com 1.10,2013-12-03 19:25:00,
2013-12-03 13:40:00,74.8,60.0,30.41,SSE,167,7.0,-999.0,60,-99.99,,,0.00,weatherlink.com 1.10,2013-12-03 19:40:00,
2013-12-03 13:55:00,74.8,61.0,30.41,SSW,200,11.0,-999.0,62,-99.99,,,0.00,weatherlink.com 1.10,2013-12-03 19:55:00,
2013-12-03 14:11:00,74.6,61.0,30.40,South,188,9.0,-999.0,62,-99.99,,,0.00,weatherlink.com 1.10,2013-12-03 20:11:00,
2013-12-03 14:26:00,74.6,61.0,30.40,SSE,161,10.0,-999.0,62,-99.99,,,0.00,weatherlink.com 1.10,2013-12-03 20:26:00,
2013-12-03 14:41:00,74.0,60.0,30.40,SSE,165,7.0,-999.0,62,-99.99,,,0.00,weatherlink.com 1.10,2013-12-03 20:41:00,
2013-12-03 14:56:00,73.4,58.0,30.39,SSE,168,7.0,-999.0,59,-99.99,,,0.00,weatherlink.com 1.10,2013-12-03 20:56:00,
2013-12-03 15:11:00,73.2,58.0,30.39,South,170,9.0,-999.0,59,-99.99,,,0.00,weatherlink.com 1.10,2013-12-03 21:11:00,
2013-12-03 15:26:00,73.5,58.0,30.39,SSE,153,6.0,-999.0,58,-99.99,,,0.00,weatherlink.com 1.10,2013-12-03 21:26:00,
2013-12-03 15:41:00,73.6,58.0,30.39,SSE,158,9.0,-999.0,59,-99.99,,,0.00,weatherlink.com 1.10,2013-12-03 21:41:00,
2013-12-03 15:57:00,73.3,58.0,30.39,SSE,157,10.0,-999.0,60,-99.99,,,0.00,weatherlink.com 1.10,2013-12-03 21:57:00,
2013-12-03 16:12:00,73.2,58.0,30.39,SSE,165,6.0,-999.0,60,-99.99,,,0.00,weatherlink.com 1.10,2013-12-03 22:12:00,
2013-12-03 16:27:00,73.0,58.0,30.39,SSE,163,4.0,-999.0,59,-99.99,,,0.00,weatherlink.com 1.10,2013-12-03 22:27:00,
2013-12-03 16:41:00,71.8,56.0,30.40,SSE,153,3.0,-999.0,57,-99.99,,,0.00,weatherlink.com 1.10,2013-12-03 22:41:00,
2013-12-03 16:56:00,71.1,53.0,30.40,South,169,4.0,-999.0,54,-99.99,,,0.00,weatherlink.com 1.10,2013-12-03 22:56:00,
2013-12-03 17:11:00,70.4,51.0,30.40,South,185,3.0,-999.0,51,-99.99,,,0.00,weatherlink.com 1.10,2013-12-03 23:11:00,
2013-12-03 17:26:00,69.2,48.0,30.40,South,169,3.0,-999.0,47,-99.99,,,0.00,weatherlink.com 1.10,2013-12-03 23:26:00,
2013-12-03 17:41:00,68.3,44.0,30.40,SSE,164,4.0,-999.0,41,-99.99,,,0.00,weatherlink.com 1.10,2013-12-03 23:41:00,
2013-12-03 17:57:00,68.0,41.0,30.40,SSE,158,3.0,-999.0,38,-99.99,,,0.00,weatherlink.com 1.10,2013-12-03 23:57:00,
2013-12-03 18:12:00,67.7,40.0,30.41,SSE,157,3.0,-999.0,36,-99.99,,,0.00,weatherlink.com 1.10,2013-12-04 00:12:00,
2013-12-03 18:27:00,67.5,39.0,30.41,SSE,157,2.0,-999.0,36,-99.99,,,0.08,weatherlink.com 1.10,2013-12-04 00:27:00,
2013-12-03 18:41:00,67.3,36.0,30.42,SSE,165,4.0,-999.0,31,-99.99,,,0.08,weatherlink.com 1.10,2013-12-04 00:41:00,
2013-12-03 18:56:00,68.3,36.0,30.43,South,170,5.0,-999.0,30,-99.99,,,0.08,weatherlink.com 1.10,2013-12-04 00:56:00,
2013-12-03 19:11:00,68.6,37.0,30.44,SSE,159,5.0,-999.0,31,-99.99,,,0.08,weatherlink.com 1.10,2013-12-04 01:11:00,
2013-12-03 19:26:00,68.1,35.0,30.44,SSE,157,5.0,-999.0,30,-99.99,,,0.08,weatherlink.com 1.10,2013-12-04 01:26:00,
2013-12-03 19:41:00,67.9,34.0,30.45,SSE,165,5.0,-999.0,29,-99.99,,,0.08,weatherlink.com 1.10,2013-12-04 01:41:00,
2013-12-03 19:56:00,67.6,33.0,30.45,South,178,6.0,-999.0,28,-99.99,,,0.08,weatherlink.com 1.10,2013-12-04 01:56:00,
2013-12-03 20:11:00,67.4,31.0,30.45,South,182,4.0,-999.0,26,-99.99,,,0.08,weatherlink.com 1.10,2013-12-04 02:11:00,
2013-12-03 20:26:00,66.7,29.0,30.46,SSE,151,7.0,-999.0,24,-99.99,,,0.08,weatherlink.com 1.10,2013-12-04 02:26:00,
2013-12-03 20:41:00,66.5,27.0,30.47,SSE,158,5.0,-999.0,23,-99.99,,,0.08,weatherlink.com 1.10,2013-12-04 02:41:00,
2013-12-03 20:56:00,66.1,26.0,30.47,SSE,163,10.0,-999.0,22,-99.99,,,0.08,weatherlink.com 1.10,2013-12-04 02:56:00,
2013-12-03 21:11:00,65.7,25.0,30.48,SSE,158,5.0,-999.0,21,-99.99,,,0.08,weatherlink.com 1.10,2013-12-04 03:11:00,
2013-12-03 21:26:00,65.4,23.0,30.48,SSE,155,5.0,-999.0,20,-99.99,,,0.08,weatherlink.com 1.10,2013-12-04 03:26:00,
2013-12-03 21:41:00,65.4,22.0,30.48,SSE,165,5.0,-999.0,19,-99.99,,,0.08,weatherlink.com 1.10,2013-12-04 03:41:00,
2013-12-03 21:56:00,65.2,20.0,30.48,South,175,5.0,-999.0,18,-99.99,,,0.08,weatherlink.com 1.10,2013-12-04 03:56:00,
2013-12-03 22:11:00,65.1,20.0,30.49,SSE,158,6.0,-999.0,18,-99.99,,,0.08,weatherlink.com 1.10,2013-12-04 04:11:00,
2013-12-03 22:26:00,65.4,19.0,30.49,SE,144,5.0,-999.0,17,-99.99,,,0.08,weatherlink.com 1.10,2013-12-04 04:26:00,
2013-12-03 22:42:00,65.5,19.0,30.49,SSE,157,5.0,-999.0,17,-99.99,,,0.08,weatherlink.com 1.10,2013-12-04 04:42:00,
2013-12-03 22:57:00,65.7,20.0,30.50,SSE,166,6.0,-999.0,17,-99.99,,,0.08,weatherlink.com 1.10,2013-12-04 04:57:00,
2013-12-03 23:12:00,65.8,20.0,30.50,SSW,206,6.0,-999.0,17,-99.99,,,0.08,weatherlink.com 1.10,2013-12-04 05:12:00,
2013-12-03 23:27:00,66.0,18.0,30.50,South,173,5.0,-999.0,16,-99.99,,,0.08,weatherlink.com 1.10,2013-12-04 05:27:00,
2013-12-03 23:41:00,66.0,18.0,30.49,SSE,160,5.0,-999.0,16,-99.99,,,0.00,weatherlink.com 1.10,2013-12-04 05:41:00,
2013-12-03 23:57:00,66.3,19.0,30.50,South,182,4.0,-999.0,16,-99.99,,,0.00,weatherlink.com 1.10,2013-12-04 05:57:00,